Time;durP1;ratioP1;P1;durP2;ratioP2;P2;SDS_P1;SDS_P2;PMS_P1;PMS_P2;Temp;Humidity;BMP_temperature;BMP_pressure;BME280_temperature;BME280_humidity;BME280_pressure;Samples;Min_cycle;Max_cycle;Signal;HPM_P1;HPM_P2
2022/07/15 00:01:11;;;;;;;1.83;0.25;;;16.30;64.90;;;;;;5049118;28;20114;-81
2022/07/15 00:03:44;;;;;;;1.65;0.30;;;16.30;65.10;;;;;;5050363;28;20363;-82
2022/07/15 00:06:11;;;;;;;3.35;0.30;;;16.30;65.20;;;;;;5023367;28;20048;-82
2022/07/15 00:08:38;;;;;;;1.02;0.20;;;16.20;65.20;;;;;;5023407;28;20139;-81
2022/07/15 00:11:05;;;;;;;1.20;0.20;;;16.20;65.30;;;;;;5015431;28;20067;-82
2022/07/15 00:13:32;;;;;;;2.65;0.30;;;16.20;65.50;;;;;;5060082;28;20060;-82
2022/07/15 00:15:59;;;;;;;2.08;0.30;;;16.10;65.70;;;;;;5059463;28;20131;-81
2022/07/15 00:18:26;;;;;;;2.60;0.30;;;16.00;65.70;;;;;;5068283;28;20055;-82
2022/07/15 00:20:53;;;;;;;1.60;0.32;;;15.90;66.50;;;;;;5071376;28;20094;-81
2022/07/15 00:23:20;;;;;;;2.28;0.30;;;15.90;65.90;;;;;;5046278;28;20045;-82
2022/07/15 00:25:47;;;;;;;1.50;0.40;;;15.80;66.30;;;;;;5042156;28;20067;-82
2022/07/15 00:28:18;;;;;;;1.17;0.40;;;15.80;66.60;;;;;;5013666;28;20044;-82
2022/07/15 00:30:45;;;;;;;3.80;0.50;;;15.70;66.80;;;;;;5018533;28;20041;-82
2022/07/15 00:33:11;;;;;;;1.00;0.30;;;15.60;66.90;;;;;;5022803;28;20080;-81
2022/07/15 00:35:40;;;;;;;2.05;0.60;;;15.60;66.80;;;;;;5053402;28;20063;-82
2022/07/15 00:38:10;;;;;;;1.45;0.25;;;15.60;67.00;;;;;;5036712;28;20045;-82
2022/07/15 00:40:46;;;;;;;3.58;0.50;;;15.60;67.10;;;;;;5069477;28;20439;-83
2022/07/15 00:43:17;;;;;;;0.90;0.20;;;15.50;67.20;;;;;;5066111;28;20049;-81
2022/07/15 00:45:46;;;;;;;1.58;0.30;;;15.50;67.20;;;;;;5065602;28;20144;-82
2022/07/15 00:48:13;;;;;;;2.45;0.30;;;15.50;67.20;;;;;;5049631;28;20057;-81
2022/07/15 00:50:46;;;;;;;2.10;0.30;;;15.60;67.10;;;;;;5033097;28;20102;-82
2022/07/15 00:53:18;;;;;;;2.45;0.40;;;15.60;67.20;;;;;;5060900;28;20048;-82
2022/07/15 00:55:46;;;;;;;1.67;0.30;;;15.70;67.20;;;;;;5052145;28;20054;-82
2022/07/15 00:58:23;;;;;;;4.85;0.40;;;15.60;67.20;;;;;;5019265;28;20041;-82
2022/07/15 01:00:51;;;;;;;1.20;0.30;;;15.60;67.20;;;;;;5047360;28;20055;-82
2022/07/15 01:03:19;;;;;;;0.85;0.20;;;15.60;67.30;;;;;;5054811;28;20116;-82
2022/07/15 01:05:48;;;;;;;0.73;0.30;;;15.70;67.40;;;;;;5044589;28;20052;-82
2022/07/15 01:08:17;;;;;;;2.67;0.40;;;15.70;67.30;;;;;;5056526;28;20053;-82
2022/07/15 01:10:46;;;;;;;2.15;0.35;;;15.80;67.40;;;;;;5071350;28;20091;-82
2022/07/15 01:13:13;;;;;;;0.80;0.30;;;15.80;67.30;;;;;;5072247;28;20055;-82
2022/07/15 01:15:43;;;;;;;1.98;0.30;;;15.80;67.20;;;;;;5040308;28;20072;-82
2022/07/15 01:18:12;;;;;;;0.88;0.30;;;15.90;67.10;;;;;;5004049;28;20041;-82
2022/07/15 01:20:48;;;;;;;2.22;0.30;;;16.00;67.00;;;;;;5038615;28;20066;-82
2022/07/15 01:23:16;;;;;;;1.45;0.40;;;16.10;66.90;;;;;;5062922;28;20041;-82
2022/07/15 01:25:48;;;;;;;1.33;0.20;;;16.10;67.00;;;;;;5049911;28;20068;-82
2022/07/15 01:28:16;;;;;;;3.00;0.32;;;16.00;67.00;;;;;;5019367;28;20110;-81
2022/07/15 01:30:43;;;;;;;1.90;0.20;;;16.00;67.10;;;;;;5034046;28;20045;-81
2022/07/15 01:33:14;;;;;;;2.15;0.30;;;16.00;67.40;;;;;;5037959;28;20036;-82
2022/07/15 01:35:44;;;;;;;2.35;0.30;;;15.90;67.90;;;;;;5020637;28;20049;-81
2022/07/15 01:38:11;;;;;;;0.73;0.20;;;15.90;67.40;;;;;;5034403;28;20053;-82
2022/07/15 01:40:39;;;;;;;1.13;0.20;;;15.90;67.50;;;;;;5023745;28;20049;-81
2022/07/15 01:43:07;;;;;;;2.53;0.20;;;15.90;67.60;;;;;;5034956;28;20108;-82
2022/07/15 01:45:35;;;;;;;0.85;0.20;;;15.80;67.70;;;;;;5018775;28;20068;-82
2022/07/15 01:48:03;;;;;;;1.35;0.35;;;15.90;67.90;;;;;;5018913;28;20394;-82
2022/07/15 01:50:58;;;;;;;3.65;0.20;;;15.80;67.80;;;;;;5033828;28;20537;-82
2022/07/15 01:53:26;;;;;;;1.08;0.30;;;15.80;67.90;;;;;;5054609;28;20037;-82
2022/07/15 01:55:54;;;;;;;1.60;0.30;;;15.90;67.80;;;;;;5048116;28;20067;-82
2022/07/15 01:58:22;;;;;;;4.78;0.20;;;16.00;67.90;;;;;;5049793;28;20056;-82
2022/07/15 02:00:49;;;;;;;2.88;0.40;;;16.00;67.80;;;;;;5047672;28;20534;-82
2022/07/15 02:03:18;;;;;;;5.18;0.40;;;16.00;67.80;;;;;;5065438;28;20086;-83
2022/07/15 02:05:45;;;;;;;1.25;0.20;;;16.00;67.70;;;;;;5032303;28;20092;-81
2022/07/15 02:08:14;;;;;;;1.77;0.20;;;16.10;67.70;;;;;;5042420;28;20591;-81
2022/07/15 02:10:45;;;;;;;0.55;0.20;;;16.10;67.80;;;;;;5035599;28;20145;-82
2022/07/15 02:13:18;;;;;;;2.13;0.25;;;16.10;67.70;;;;;;5034990;28;20041;-82
2022/07/15 02:15:55;;;;;;;1.08;0.20;;;16.20;67.80;;;;;;5038486;28;20524;-82
2022/07/15 02:18:25;;;;;;;2.08;0.30;;;16.20;67.70;;;;;;5029920;28;20128;-83
2022/07/15 02:20:52;;;;;;;0.82;0.32;;;16.20;67.70;;;;;;5024327;28;20056;-82
2022/07/15 02:23:19;;;;;;;2.95;0.20;;;16.30;67.70;;;;;;5054747;28;20091;-82
2022/07/15 02:25:46;;;;;;;1.00;0.30;;;16.20;67.70;;;;;;5051100;28;20042;-83
2022/07/15 02:28:13;;;;;;;0.77;0.17;;;16.20;67.80;;;;;;4998501;28;20046;-82
2022/07/15 02:30:42;;;;;;;0.52;0.13;;;16.20;67.80;;;;;;5039263;28;20049;-82
2022/07/15 02:33:13;;;;;;;1.58;0.25;;;16.30;67.80;;;;;;5058406;28;20063;-81
2022/07/15 02:35:42;;;;;;;1.30;0.10;;;16.30;67.90;;;;;;5057101;28;20057;-83
2022/07/15 02:38:12;;;;;;;1.15;0.20;;;16.30;68.00;;;;;;5034707;28;20057;-83
2022/07/15 02:40:41;;;;;;;4.10;0.20;;;16.20;67.90;;;;;;5034547;28;20067;-83
2022/07/15 02:43:12;;;;;;;1.10;0.17;;;16.20;67.90;;;;;;5027933;28;20048;-83
2022/07/15 02:45:43;;;;;;;0.95;0.10;;;16.30;68.00;;;;;;5029779;28;20045;-82
2022/07/15 02:48:12;;;;;;;0.98;0.20;;;16.30;67.90;;;;;;5070347;28;20052;-82
2022/07/15 02:50:44;;;;;;;1.98;0.20;;;16.30;67.80;;;;;;5037888;28;20519;-77
2022/07/15 02:53:18;;;;;;;2.05;0.15;;;16.30;67.70;;;;;;5044693;28;20052;-78
2022/07/15 02:55:48;;;;;;;1.17;0.20;;;16.30;67.80;;;;;;5047173;28;20041;-78
2022/07/15 02:58:15;;;;;;;2.40;0.22;;;16.30;67.90;;;;;;5051247;28;20041;-77
2022/07/15 03:00:44;;;;;;;0.73;0.20;;;16.30;67.80;;;;;;5051174;28;20449;-78
2022/07/15 03:03:11;;;;;;;1.98;0.10;;;16.30;67.70;;;;;;5008659;28;20041;-77
2022/07/15 03:05:40;;;;;;;0.60;0.10;;;16.30;67.70;;;;;;5035812;28;20110;-78
2022/07/15 03:08:09;;;;;;;1.08;0.20;;;16.30;67.70;;;;;;5021678;28;20045;-78
2022/07/15 03:10:38;;;;;;;0.98;0.20;;;16.40;67.80;;;;;;5064529;28;20464;-78
2022/07/15 03:13:05;;;;;;;1.02;0.10;;;16.30;67.80;;;;;;5049878;28;20060;-77
2022/07/15 03:15:32;;;;;;;0.30;0.10;;;16.30;67.90;;;;;;5039525;28;20386;-78
2022/07/15 03:18:00;;;;;;;0.43;0.10;;;16.20;67.90;;;;;;5045529;28;20072;-78
2022/07/15 03:20:27;;;;;;;0.45;0.10;;;16.20;67.90;;;;;;5048884;28;20051;-78
2022/07/15 03:22:54;;;;;;;1.58;0.35;;;16.20;67.90;;;;;;5037507;28;20072;-78
2022/07/15 03:25:21;;;;;;;0.63;0.10;;;16.20;68.10;;;;;;5016642;28;20052;-78
2022/07/15 03:27:48;;;;;;;1.15;0.20;;;16.10;68.10;;;;;;5054490;28;20161;-78
2022/07/15 03:30:15;;;;;;;0.77;0.10;;;16.10;68.30;;;;;;5040486;28;20110;-78
2022/07/15 03:32:43;;;;;;;0.43;0.10;;;16.00;68.30;;;;;;5024733;28;20054;-78
2022/07/15 03:35:10;;;;;;;1.90;0.30;;;16.00;68.30;;;;;;5030215;28;20459;-78
2022/07/15 03:37:39;;;;;;;1.88;0.20;;;16.00;68.40;;;;;;5037057;28;20036;-78
2022/07/15 03:40:07;;;;;;;1.25;0.20;;;16.00;68.50;;;;;;5033526;28;20056;-78
2022/07/15 03:42:36;;;;;;;0.90;0.20;;;15.90;68.50;;;;;;5048207;28;20519;-78
2022/07/15 03:45:04;;;;;;;2.90;0.20;;;15.90;68.60;;;;;;5020581;28;20060;-78
2022/07/15 03:47:32;;;;;;;1.33;0.28;;;15.90;68.60;;;;;;5037595;28;20067;-78
2022/07/15 03:50:01;;;;;;;0.73;0.20;;;15.90;68.70;;;;;;5037553;28;20138;-78
2022/07/15 03:52:30;;;;;;;3.33;0.40;;;15.90;68.90;;;;;;5029822;28;20746;-77
2022/07/15 03:54:57;;;;;;;2.30;0.60;;;15.90;69.10;;;;;;5051407;28;20369;-78
2022/07/15 03:57:26;;;;;;;1.38;0.35;;;15.80;69.20;;;;;;5047178;28;20051;-77
2022/07/15 03:59:53;;;;;;;1.42;0.30;;;15.80;69.30;;;;;;5038089;28;20051;-77
2022/07/15 04:02:20;;;;;;;3.72;0.30;;;15.80;69.20;;;;;;5020631;28;20099;-77
2022/07/15 04:04:49;;;;;;;3.22;0.30;;;15.80;69.30;;;;;;5028707;28;20078;-77
2022/07/15 04:07:17;;;;;;;4.15;0.43;;;15.80;69.30;;;;;;5053285;28;20059;-77
2022/07/15 04:09:44;;;;;;;1.38;0.32;;;15.80;69.30;;;;;;5023510;28;20097;-78
2022/07/15 04:12:11;;;;;;;2.90;0.22;;;15.90;69.40;;;;;;5056198;28;20056;-78
2022/07/15 04:14:39;;;;;;;0.93;0.20;;;15.80;69.30;;;;;;5009060;28;20080;-78
2022/07/15 04:17:09;;;;;;;1.13;0.10;;;15.80;69.50;;;;;;5043320;28;20064;-77
2022/07/15 04:19:39;;;;;;;1.48;0.20;;;15.80;69.50;;;;;;5032141;28;20052;-78
2022/07/15 04:22:06;;;;;;;1.05;0.20;;;15.80;69.50;;;;;;5046710;28;20080;-78
2022/07/15 04:24:41;;;;;;;2.63;0.20;;;15.80;69.70;;;;;;5030981;28;20052;-77
2022/07/15 04:27:12;;;;;;;3.50;0.50;;;15.70;69.90;;;;;;5036596;28;20051;-78
2022/07/15 04:29:39;;;;;;;4.45;0.47;;;15.70;70.20;;;;;;5040578;28;20291;-78
2022/07/15 04:32:08;;;;;;;2.22;0.20;;;15.60;70.80;;;;;;5052408;28;20079;-78
2022/07/15 04:34:39;;;;;;;3.40;0.20;;;15.60;70.60;;;;;;5062219;28;20090;-78
2022/07/15 04:37:06;;;;;;;0.85;0.30;;;15.50;70.70;;;;;;5035004;28;20093;-78
2022/07/15 04:39:37;;;;;;;2.30;0.30;;;15.50;70.70;;;;;;5028649;28;20067;-78
2022/07/15 04:42:04;;;;;;;1.83;0.15;;;15.50;70.80;;;;;;5046470;28;20419;-78
2022/07/15 04:44:35;;;;;;;3.00;0.40;;;15.50;70.80;;;;;;5036489;28;20111;-78
2022/07/15 04:47:05;;;;;;;1.08;0.30;;;15.50;70.70;;;;;;5027653;28;20052;-77
2022/07/15 04:52:25;;;;;;;3.00;0.30;;;15.50;70.80;;;;;;5031337;28;20040;-78
2022/07/15 04:54:53;;;;;;;2.35;0.20;;;15.50;70.80;;;;;;5041067;28;20049;-78
2022/07/15 04:57:20;;;;;;;0.75;0.20;;;15.50;70.80;;;;;;5019557;28;20492;-77
2022/07/15 04:59:48;;;;;;;1.60;0.13;;;15.50;71.40;;;;;;5035505;28;20349;-78
2022/07/15 05:02:17;;;;;;;0.60;0.10;;;15.60;70.80;;;;;;5070551;28;20098;-78
2022/07/15 05:04:47;;;;;;;2.03;0.20;;;15.60;71.30;;;;;;5034387;28;20403;-78
2022/07/15 05:07:15;;;;;;;2.00;0.20;;;15.70;70.70;;;;;;5023226;28;20132;-82
2022/07/15 05:09:43;;;;;;;1.05;0.10;;;15.70;70.70;;;;;;5023242;28;20041;-82
2022/07/15 05:12:11;;;;;;;4.45;0.30;;;15.70;70.70;;;;;;5042150;28;20078;-82
2022/07/15 05:14:46;;;;;;;2.13;0.50;;;15.70;71.00;;;;;;5044630;28;20434;-82
2022/07/15 05:17:15;;;;;;;3.05;0.40;;;15.70;71.20;;;;;;5056017;28;20144;-81
2022/07/15 05:19:46;;;;;;;3.17;0.30;;;15.60;71.40;;;;;;5039093;28;20052;-82
2022/07/15 05:22:19;;;;;;;1.20;0.28;;;15.60;71.20;;;;;;5037705;28;20052;-77
2022/07/15 05:24:46;;;;;;;1.77;0.40;;;15.70;71.20;;;;;;5030712;28;20052;-77
2022/07/15 05:27:14;;;;;;;1.40;0.32;;;15.70;71.30;;;;;;5028145;28;20051;-77
2022/07/15 05:29:45;;;;;;;2.65;0.30;;;15.70;71.30;;;;;;5047433;28;20451;-77
2022/07/15 05:32:12;;;;;;;2.55;0.50;;;15.60;71.40;;;;;;5031735;28;20045;-77
2022/07/15 05:34:40;;;;;;;3.72;0.40;;;15.70;71.60;;;;;;5003030;28;20040;-77
2022/07/15 05:37:13;;;;;;;3.13;0.50;;;15.70;71.80;;;;;;5052320;28;20484;-77
2022/07/15 05:39:53;;;;;;;2.92;0.20;;;15.70;71.60;;;;;;5058172;28;20086;-77
2022/07/15 05:42:27;;;;;;;1.35;0.20;;;15.80;71.30;;;;;;5061627;28;20045;-77
2022/07/15 05:44:56;;;;;;;1.58;0.30;;;16.00;71.00;;;;;;5028387;28;20055;-77
2022/07/15 05:47:23;;;;;;;4.43;0.82;;;16.10;70.60;;;;;;5034547;28;20074;-77
2022/07/15 05:49:51;;;;;;;2.38;0.60;;;16.30;70.40;;;;;;5026450;28;20044;-77
2022/07/15 05:52:18;;;;;;;1.85;0.20;;;16.40;70.10;;;;;;5021818;28;20496;-76
2022/07/15 05:54:45;;;;;;;2.42;0.30;;;16.50;69.90;;;;;;5034379;28;20103;-76
2022/07/15 05:57:12;;;;;;;3.15;0.35;;;16.60;70.00;;;;;;5030340;28;20040;-77
2022/07/15 05:59:43;;;;;;;1.77;0.60;;;16.60;70.00;;;;;;5018993;28;20041;-76
2022/07/15 06:02:10;;;;;;;1.85;0.50;;;16.70;69.90;;;;;;5030547;28;20099;-80
2022/07/15 06:04:38;;;;;;;1.08;0.20;;;16.80;69.70;;;;;;5033646;28;20075;-80
2022/07/15 06:07:05;;;;;;;3.40;0.50;;;16.80;69.60;;;;;;5039079;28;20056;-81
2022/07/15 06:09:33;;;;;;;1.58;0.30;;;16.90;69.50;;;;;;5038051;28;20745;-81
2022/07/15 06:12:00;;;;;;;2.58;0.40;;;17.00;69.40;;;;;;5037689;28;20044;-81
2022/07/15 06:14:27;;;;;;;1.23;0.25;;;17.10;69.20;;;;;;5050300;28;20041;-80
2022/07/15 06:17:05;;;;;;;3.05;0.32;;;17.20;69.10;;;;;;5022213;28;20052;-80
2022/07/15 06:19:33;;;;;;;2.20;0.30;;;17.30;68.80;;;;;;5056780;28;20044;-80
2022/07/15 06:22:00;;;;;;;2.10;0.20;;;17.30;68.70;;;;;;5040752;28;20158;-80
2022/07/15 06:24:29;;;;;;;0.70;0.20;;;17.50;68.60;;;;;;5057442;28;20043;-80
2022/07/15 06:26:56;;;;;;;2.28;0.45;;;17.60;68.40;;;;;;5053977;28;20076;-79
2022/07/15 06:29:23;;;;;;;3.72;0.47;;;17.70;68.20;;;;;;5039700;28;20047;-78
2022/07/15 06:31:53;;;;;;;3.15;0.40;;;17.70;67.90;;;;;;5031457;28;20074;-78
2022/07/15 06:34:21;;;;;;;1.13;0.20;;;17.90;67.80;;;;;;5025624;28;20372;-77
2022/07/15 06:36:50;;;;;;;2.35;0.28;;;18.00;67.60;;;;;;5035451;28;20040;-79
2022/07/15 06:39:17;;;;;;;0.55;0.10;;;18.10;67.30;;;;;;5046122;28;20048;-78
2022/07/15 06:41:45;;;;;;;2.25;0.10;;;18.20;67.10;;;;;;5023609;28;20048;-79
2022/07/15 06:44:14;;;;;;;1.73;0.20;;;18.20;66.60;;;;;;5002031;28;20056;-79
2022/07/15 06:46:44;;;;;;;1.02;0.13;;;18.30;66.50;;;;;;5050988;28;20072;-79
2022/07/15 06:49:11;;;;;;;1.00;0.20;;;18.40;66.50;;;;;;5047657;28;20073;-81
2022/07/15 06:51:38;;;;;;;1.88;0.20;;;18.50;66.20;;;;;;5064919;28;20036;-80
2022/07/15 06:54:07;;;;;;;0.60;0.10;;;18.60;66.00;;;;;;5033097;28;20059;-79
2022/07/15 06:56:36;;;;;;;1.60;0.20;;;18.70;65.70;;;;;;5055718;28;20044;-79
2022/07/15 06:59:03;;;;;;;1.25;0.20;;;18.70;65.10;;;;;;5031507;28;20036;-79
2022/07/15 07:01:32;;;;;;;1.02;0.20;;;18.60;65.10;;;;;;5061647;28;20044;-78
2022/07/15 07:03:59;;;;;;;1.00;0.15;;;18.70;65.10;;;;;;5054358;28;20048;-78
2022/07/15 07:06:28;;;;;;;1.42;0.20;;;18.80;64.70;;;;;;5024638;28;20045;-78
2022/07/15 07:08:55;;;;;;;4.05;0.20;;;18.90;64.50;;;;;;5023170;28;20044;-80
2022/07/15 07:11:22;;;;;;;1.60;0.20;;;19.00;64.30;;;;;;5062651;28;20064;-81
2022/07/15 07:13:50;;;;;;;2.05;0.20;;;19.00;64.00;;;;;;5056005;28;20051;-80
2022/07/15 07:16:18;;;;;;;1.05;0.20;;;19.10;63.60;;;;;;5045209;28;20063;-80
2022/07/15 07:18:47;;;;;;;1.67;0.22;;;19.20;63.40;;;;;;5028398;28;20036;-78
2022/07/15 07:21:14;;;;;;;1.13;0.30;;;19.20;63.20;;;;;;5056286;28;20131;-80
2022/07/15 07:23:42;;;;;;;0.40;0.10;;;19.30;63.00;;;;;;5055997;28;20037;-79
2022/07/15 07:26:11;;;;;;;1.88;0.20;;;19.30;62.70;;;;;;5074438;28;20044;-79
2022/07/15 07:28:40;;;;;;;0.95;0.10;;;19.40;62.40;;;;;;5038295;28;20457;-79
2022/07/15 07:31:08;;;;;;;1.45;0.20;;;19.50;62.20;;;;;;5041462;28;20561;-80
2022/07/15 07:33:35;;;;;;;1.55;0.28;;;19.50;61.90;;;;;;5039202;28;21041;-80
2022/07/15 07:36:04;;;;;;;0.25;0.10;;;19.60;61.70;;;;;;5060386;28;20089;-79
2022/07/15 07:38:35;;;;;;;1.55;0.10;;;19.60;61.50;;;;;;5034207;28;20591;-79
2022/07/15 07:41:03;;;;;;;0.75;0.10;;;19.50;61.60;;;;;;5058980;28;20561;-79
2022/07/15 07:43:32;;;;;;;3.13;0.20;;;19.50;61.50;;;;;;5039920;28;20142;-80
2022/07/15 07:45:59;;;;;;;1.20;0.13;;;19.70;61.00;;;;;;5054156;28;20140;-80
2022/07/15 07:48:27;;;;;;;1.15;0.10;;;19.80;60.30;;;;;;5047867;28;20446;-80
2022/07/15 07:50:54;;;;;;;1.27;0.10;;;19.70;60.00;;;;;;5044865;28;20409;-81
2022/07/15 07:53:21;;;;;;;1.15;0.10;;;19.60;59.50;;;;;;5042766;28;20135;-80
2022/07/15 07:55:49;;;;;;;1.13;0.10;;;19.60;59.70;;;;;;5052368;28;20506;-80
2022/07/15 07:58:17;;;;;;;0.20;0.00;;;19.70;59.50;;;;;;5037215;28;20099;-81
2022/07/15 08:00:44;;;;;;;0.28;0.08;;;20.00;59.20;;;;;;5051085;28;20045;-80
2022/07/15 08:03:12;;;;;;;0.30;0.10;;;20.20;58.80;;;;;;5056389;28;20086;-80
2022/07/15 08:05:42;;;;;;;1.23;0.10;;;20.30;58.40;;;;;;5070804;28;20040;-80
2022/07/15 08:08:17;;;;;;;0.13;0.05;;;20.40;58.20;;;;;;5026045;28;20055;-81
2022/07/15 08:10:49;;;;;;;0.15;0.00;;;20.30;58.10;;;;;;5066818;28;20044;-84
2022/07/15 08:13:17;;;;;;;0.17;0.10;;;20.20;57.90;;;;;;5052148;28;20052;-84
2022/07/15 08:15:45;;;;;;;1.20;0.03;;;20.20;57.90;;;;;;5040274;28;20767;-78
2022/07/15 08:18:12;;;;;;;0.20;0.00;;;20.50;58.00;;;;;;5045070;28;20041;-77
2022/07/15 08:20:40;;;;;;;0.30;0.00;;;20.80;56.80;;;;;;5039327;28;20431;-77
2022/07/15 08:23:10;;;;;;;0.20;0.00;;;20.90;56.50;;;;;;5039068;28;20136;-77
2022/07/15 08:25:38;;;;;;;0.77;0.05;;;21.00;56.30;;;;;;5009068;28;20047;-78
2022/07/15 08:28:06;;;;;;;0.70;0.00;;;21.00;56.00;;;;;;5056721;28;20044;-78
2022/07/15 08:30:34;;;;;;;1.27;0.20;;;21.00;55.50;;;;;;5069756;28;20040;-78
2022/07/15 08:33:02;;;;;;;1.98;0.20;;;20.80;55.50;;;;;;5019043;28;20084;-77
2022/07/15 08:35:32;;;;;;;0.60;0.10;;;20.60;56.00;;;;;;5059415;28;20063;-77
2022/07/15 08:38:06;;;;;;;1.25;0.20;;;20.40;56.30;;;;;;5032653;28;20036;-77
2022/07/15 08:40:35;;;;;;;2.20;0.20;;;20.30;56.70;;;;;;5055484;28;20033;-77
2022/07/15 08:43:05;;;;;;;1.50;0.13;;;20.20;56.70;;;;;;5031944;28;20849;-77
2022/07/15 08:45:40;;;;;;;0.60;0.10;;;20.10;56.70;;;;;;5019928;28;20048;-77
2022/07/15 08:48:16;;;;;;;0.55;0.10;;;20.30;56.70;;;;;;5031682;28;20056;-78
2022/07/15 08:50:45;;;;;;;0.40;0.10;;;20.40;56.50;;;;;;5071690;28;20113;-77
2022/07/15 08:53:12;;;;;;;0.47;0.10;;;20.60;56.20;;;;;;5055976;28;20047;-77
2022/07/15 08:55:39;;;;;;;0.98;0.03;;;20.70;56.00;;;;;;5045432;28;20040;-77
2022/07/15 08:58:06;;;;;;;0.63;0.10;;;20.70;56.00;;;;;;5061664;28;20074;-78
2022/07/15 09:00:33;;;;;;;0.65;0.10;;;20.80;56.00;;;;;;5033798;28;20509;-77
2022/07/15 09:03:04;;;;;;;0.57;0.10;;;20.80;56.00;;;;;;5024557;28;20037;-78
2022/07/15 09:05:34;;;;;;;1.08;0.10;;;20.70;55.80;;;;;;5050482;28;20652;-78
2022/07/15 09:08:00;;;;;;;0.70;0.10;;;20.60;55.50;;;;;;5063151;28;20051;-77
2022/07/15 09:10:41;;;;;;;0.88;0.10;;;20.60;55.40;;;;;;5067259;28;20044;-78
2022/07/15 09:13:10;;;;;;;0.47;0.10;;;20.70;55.10;;;;;;5052531;28;20488;-78
2022/07/15 09:15:39;;;;;;;1.55;0.30;;;20.80;55.00;;;;;;5065990;28;20040;-78
2022/07/15 09:18:15;;;;;;;0.13;0.05;;;20.90;54.60;;;;;;5044803;28;20048;-77
2022/07/15 09:20:44;;;;;;;2.22;0.10;;;21.00;53.90;;;;;;5029125;28;20044;-78
2022/07/15 09:23:20;;;;;;;1.02;0.10;;;21.00;53.80;;;;;;5065278;28;20040;-78
2022/07/15 09:25:50;;;;;;;1.00;0.10;;;21.20;53.80;;;;;;5065343;28;20040;-75
2022/07/15 09:28:17;;;;;;;0.70;0.20;;;21.50;53.70;;;;;;5035763;28;20099;-76
2022/07/15 09:33:40;;;;;;;1.20;0.20;;;21.70;53.00;;;;;;5031834;28;20049;-86
2022/07/15 09:36:08;;;;;;;1.67;0.10;;;21.70;52.90;;;;;;5050988;28;20461;-81
2022/07/15 09:38:41;;;;;;;1.38;0.17;;;21.60;53.00;;;;;;5065225;28;20044;-84
2022/07/15 09:41:19;;;;;;;1.10;0.10;;;21.50;53.20;;;;;;5076582;28;20036;-87
2022/07/15 09:43:52;;;;;;;1.63;0.25;;;21.40;53.40;;;;;;5059701;28;20478;-85
2022/07/15 09:46:21;;;;;;;1.30;0.10;;;21.30;53.60;;;;;;5062731;28;20105;-88
2022/07/15 09:48:50;;;;;;;1.25;0.10;;;21.20;53.70;;;;;;5030221;28;20087;-88
2022/07/15 09:51:17;;;;;;;1.90;0.17;;;21.20;53.70;;;;;;5045363;28;20052;-83
2022/07/15 09:53:47;;;;;;;1.38;0.15;;;21.20;53.70;;;;;;5038617;28;20053;-83
2022/07/15 09:56:21;;;;;;;0.88;0.10;;;21.20;53.70;;;;;;5060362;28;20041;-86
2022/07/15 09:58:49;;;;;;;0.85;0.10;;;21.30;53.70;;;;;;5064423;28;20411;-84
2022/07/15 10:01:16;;;;;;;0.93;0.30;;;21.40;53.60;;;;;;5066797;28;20041;-84
2022/07/15 10:03:44;;;;;;;1.23;0.20;;;21.70;53.30;;;;;;5032726;28;20048;-81
2022/07/15 10:06:14;;;;;;;1.17;0.20;;;22.10;53.00;;;;;;5042049;28;20049;-82
2022/07/15 10:08:47;;;;;;;2.63;0.17;;;22.30;52.40;;;;;;5056777;28;20135;-83
2022/07/15 10:11:15;;;;;;;1.48;0.10;;;22.30;52.40;;;;;;5054412;28;20047;-83
2022/07/15 10:13:51;;;;;;;1.85;0.17;;;22.20;52.30;;;;;;5037856;28;20436;-81
2022/07/15 10:16:51;;;;;;;2.38;0.20;;;22.20;52.50;;;;;;5067989;28;20040;-81
2022/07/15 10:19:33;;;;;;;0.25;0.00;;;22.10;52.70;;;;;;5052448;28;20404;-87
2022/07/15 10:22:24;;;;;;;0.40;0.00;;;22.00;52.70;;;;;;5079784;28;20467;-85
2022/07/15 10:25:26;;;;;;;1.40;0.10;;;22.00;53.20;;;;;;5036380;28;20055;-86
2022/07/15 10:27:53;;;;;;;2.30;0.10;;;21.80;52.40;;;;;;4967880;28;20046;-86
2022/07/15 10:30:23;;;;;;;1.08;0.00;;;21.80;52.20;;;;;;5043392;28;20408;-85
2022/07/15 10:33:05;;;;;;;1.27;0.08;;;21.90;52.10;;;;;;5059289;28;20063;-83
2022/07/15 10:35:43;;;;;;;0.40;0.00;;;21.90;52.10;;;;;;5059651;28;20500;-83
2022/07/15 10:38:28;;;;;;;0.90;0.00;;;22.20;51.90;;;;;;5043857;28;20046;-83
2022/07/15 10:41:01;;;;;;;0.75;0.10;;;22.70;51.50;;;;;;5063776;28;20045;-75
2022/07/15 10:43:43;;;;;;;0.20;0.10;;;23.00;50.90;;;;;;5058784;28;20044;-76
2022/07/15 10:46:16;;;;;;;0.57;0.00;;;23.40;50.50;;;;;;5049899;28;20496;-76
2022/07/15 10:49:11;;;;;;;0.98;0.10;;;23.70;49.90;;;;;;5071576;28;20503;-76
2022/07/15 10:51:39;;;;;;;0.98;0.10;;;23.80;50.00;;;;;;5033010;28;20566;-76
2022/07/15 10:54:08;;;;;;;1.63;0.38;;;23.90;49.70;;;;;;5036420;28;20075;-78
2022/07/15 10:56:45;;;;;;;0.65;0.10;;;23.80;49.50;;;;;;5043004;28;20045;-76
2022/07/15 10:59:15;;;;;;;1.38;0.10;;;23.80;48.80;;;;;;5043638;28;20143;-74
2022/07/15 11:01:45;;;;;;;0.45;0.10;;;23.80;48.70;;;;;;5053312;28;20044;-75
2022/07/15 11:04:21;;;;;;;0.60;0.10;;;23.90;48.80;;;;;;5057621;28;20047;-75
2022/07/15 11:07:09;;;;;;;2.17;0.20;;;24.20;48.50;;;;;;5034231;28;20047;-74
2022/07/15 11:09:46;;;;;;;0.75;0.10;;;24.40;48.00;;;;;;5056519;28;20123;-76
2022/07/15 11:12:17;;;;;;;1.95;0.30;;;24.40;47.50;;;;;;5064621;28;20380;-76
2022/07/15 11:14:50;;;;;;;1.48;0.20;;;24.60;47.40;;;;;;5057908;28;20055;-83
2022/07/15 11:17:28;;;;;;;1.20;0.20;;;24.70;46.70;;;;;;5071625;28;20044;-83
2022/07/15 11:19:58;;;;;;;0.93;0.13;;;24.50;46.60;;;;;;5063221;28;20139;-84
2022/07/15 11:22:27;;;;;;;0.68;0.10;;;24.40;46.80;;;;;;5051924;28;20044;-84
2022/07/15 11:24:55;;;;;;;0.55;0.10;;;24.50;47.00;;;;;;5059128;28;20040;-85
2022/07/15 11:27:25;;;;;;;1.08;0.20;;;24.20;46.70;;;;;;5041347;28;20107;-86
2022/07/15 11:29:55;;;;;;;1.42;0.20;;;23.90;47.30;;;;;;5052971;28;20044;-84
2022/07/15 11:32:22;;;;;;;0.10;0.00;;;23.60;48.00;;;;;;5063864;28;20060;-77
2022/07/15 11:34:52;;;;;;;0.20;0.00;;;23.40;48.30;;;;;;5049586;28;20440;-77
2022/07/15 11:37:31;;;;;;;0.70;0.00;;;23.20;48.60;;;;;;5048865;28;20040;-76
2022/07/15 11:40:08;;;;;;;0.47;0.10;;;23.00;48.90;;;;;;5053360;28;20032;-77
2022/07/15 11:45:38;;;;;;;0.98;0.10;;;23.00;49.00;;;;;;5053135;28;20480;-76
2022/07/15 11:48:08;;;;;;;0.85;0.20;;;23.10;48.70;;;;;;5063048;28;20117;-79
2022/07/15 11:50:52;;;;;;;0.20;0.10;;;23.20;48.70;;;;;;5063030;28;20048;-77
2022/07/15 11:53:19;;;;;;;1.13;0.20;;;23.50;48.20;;;;;;5056888;28;20072;-75
2022/07/15 11:55:57;;;;;;;0.82;0.03;;;23.90;47.50;;;;;;5041676;28;20102;-76
2022/07/15 11:58:33;;;;;;;0.85;0.10;;;24.30;46.90;;;;;;5067709;28;20044;-80
2022/07/15 12:01:02;;;;;;;0.73;0.10;;;24.50;46.60;;;;;;5076753;28;20493;-79
2022/07/15 12:03:42;;;;;;;0.57;0.10;;;24.40;46.80;;;;;;5062855;28;20044;-81
2022/07/15 12:06:16;;;;;;;0.75;0.05;;;24.20;47.90;;;;;;5034731;28;20458;-79
2022/07/15 12:08:47;;;;;;;0.10;0.00;;;23.90;47.60;;;;;;5058922;28;20087;-81
2022/07/15 12:11:18;;;;;;;0.40;0.10;;;23.70;47.90;;;;;;5066984;28;20067;-80
2022/07/15 12:14:01;;;;;;;0.63;0.10;;;23.40;48.30;;;;;;5050681;28;20493;-83
2022/07/15 12:16:34;;;;;;;0.60;0.10;;;23.30;48.40;;;;;;5056149;28;20131;-78
2022/07/15 12:19:16;;;;;;;1.75;0.13;;;23.60;48.30;;;;;;5055886;28;20032;-80
2022/07/15 12:21:45;;;;;;;1.85;0.15;;;23.70;47.70;;;;;;5056165;28;20504;-78
2022/07/15 12:24:17;;;;;;;0.10;0.05;;;23.60;47.50;;;;;;5064552;28;20036;-80
2022/07/15 12:26:50;;;;;;;;;;;23.50;47.80;;;;;;5049292;28;20045;-78
2022/07/15 12:29:20;;;;;;;1.98;0.10;;;23.40;48.10;;;;;;5064113;28;19928;-76
2022/07/15 12:32:02;;;;;;;0.82;0.20;;;23.40;48.00;;;;;;5055581;28;20052;-76
2022/07/15 12:34:47;;;;;;;0.80;0.10;;;23.60;48.00;;;;;;5054647;28;20098;-79
2022/07/15 12:37:16;;;;;;;0.75;0.10;;;23.80;47.40;;;;;;5038357;28;20047;-78
2022/07/15 12:39:58;;;;;;;2.30;0.22;;;23.80;47.30;;;;;;5051208;28;20055;-79
2022/07/15 12:42:44;;;;;;;0.38;0.13;;;24.20;46.70;;;;;;5057082;28;20051;-79
2022/07/15 12:45:16;;;;;;;0.57;0.10;;;24.40;46.30;;;;;;5062755;28;20085;-78
2022/07/15 12:48:05;;;;;;;0.38;0.10;;;24.20;46.40;;;;;;5063163;28;20110;-79
2022/07/15 12:50:52;;;;;;;0.25;0.08;;;24.10;46.60;;;;;;5050931;28;20078;-78
2022/07/15 12:53:27;;;;;;;0.43;0.00;;;23.80;47.00;;;;;;5061375;28;20154;-79
2022/07/15 12:55:59;;;;;;;0.55;0.10;;;23.60;47.40;;;;;;5046952;28;20385;-75
2022/07/15 12:58:28;;;;;;;0.40;0.10;;;23.50;47.70;;;;;;5048382;28;20117;-75
2022/07/15 13:01:06;;;;;;;0.32;0.10;;;23.30;47.60;;;;;;5053416;28;20459;-75
2022/07/15 13:03:33;;;;;;;0.70;0.10;;;23.20;47.60;;;;;;5072318;28;20404;-74
2022/07/15 13:06:01;;;;;;;1.73;0.22;;;23.20;47.70;;;;;;5076470;28;20180;-75
2022/07/15 13:08:34;;;;;;;1.38;0.15;;;23.20;46.90;;;;;;5058607;28;20385;-76
2022/07/15 13:11:04;;;;;;;1.30;0.10;;;23.10;46.90;;;;;;5057499;28;20067;-76
2022/07/15 13:13:35;;;;;;;1.15;0.10;;;23.10;46.60;;;;;;5051252;28;20148;-77